Time;durP1;ratioP1;P1;durP2;ratioP2;P2;SDS_P1;SDS_P2;PMS_P1;PMS_P2;Temp;Humidity;BMP_temperature;BMP_pressure;BME280_temperature;BME280_humidity;BME280_pressure;Samples;Min_cycle;Max_cycle;Signal;HPM_P1;HPM_P2
2020/12/16 00:01:52;;;;;;;22.20;10.07;;;6.10;93.80;;;;;;4945875;28;20178;-73
2020/12/16 00:04:18;;;;;;;18.33;9.80;;;6.10;94.10;;;;;;4968569;28;20273;-74
2020/12/16 00:06:44;;;;;;;21.50;9.20;;;6.10;94.10;;;;;;4967978;28;20563;-74
2020/12/16 00:09:10;;;;;;;18.70;9.87;;;6.00;94.20;;;;;;4950778;28;20202;-75
2020/12/16 00:11:35;;;;;;;16.83;9.33;;;6.00;94.20;;;;;;4968631;28;20203;-74
2020/12/16 00:14:01;;;;;;;17.23;10.60;;;5.90;94.40;;;;;;4951258;28;20190;-74
2020/12/16 00:16:27;;;;;;;18.33;9.93;;;5.90;94.50;;;;;;4943251;29;20244;-74
2020/12/16 00:18:52;;;;;;;21.70;9.93;;;5.80;94.70;;;;;;4945802;28;20277;-74
2020/12/16 00:21:22;;;;;;;21.50;10.60;;;5.80;94.90;;;;;;4967880;28;20694;-74
2020/12/16 00:23:48;;;;;;;21.23;10.77;;;5.80;95.30;;;;;;4968336;28;20202;-74
2020/12/16 00:26:14;;;;;;;21.43;10.30;;;5.80;95.20;;;;;;4950282;28;20193;-74
2020/12/16 00:28:41;;;;;;;25.37;10.80;;;5.80;95.30;;;;;;4966948;28;20195;-73
2020/12/16 00:31:07;;;;;;;23.13;10.60;;;5.70;95.50;;;;;;4967781;28;20717;-73
2020/12/16 00:33:33;;;;;;;20.43;10.73;;;5.70;95.50;;;;;;4968378;28;20250;-74
2020/12/16 00:35:59;;;;;;;22.83;11.20;;;5.60;95.50;;;;;;4967266;28;20182;-74
2020/12/16 00:38:25;;;;;;;20.90;10.70;;;5.60;95.60;;;;;;4968147;28;20659;-74
2020/12/16 00:40:50;;;;;;;21.80;9.73;;;5.50;96.00;;;;;;4967930;28;20674;-74
2020/12/16 00:43:16;;;;;;;18.23;9.77;;;5.40;96.00;;;;;;4967586;28;20316;-74
2020/12/16 00:45:42;;;;;;;24.47;11.57;;;5.40;96.30;;;;;;4966881;28;20190;-74
2020/12/16 00:48:07;;;;;;;17.93;9.77;;;5.40;96.20;;;;;;4967404;28;21056;-73
2020/12/16 00:50:33;;;;;;;19.43;10.30;;;5.40;96.50;;;;;;4966368;28;20262;-74
2020/12/16 00:53:00;;;;;;;21.33;9.77;;;5.40;96.50;;;;;;4967467;28;20170;-74
2020/12/16 00:55:26;;;;;;;16.27;9.13;;;5.30;96.60;;;;;;4964945;28;20217;-74
2020/12/16 00:57:51;;;;;;;15.23;8.57;;;5.40;96.50;;;;;;4966811;28;20579;-74
2020/12/16 01:00:18;;;;;;;18.60;10.33;;;5.40;96.80;;;;;;4949197;28;20194;-74
2020/12/16 01:02:47;;;;;;;23.27;10.20;;;5.30;96.70;;;;;;4967866;28;20186;-74
2020/12/16 01:05:15;;;;;;;17.83;9.30;;;5.30;96.70;;;;;;4966752;28;20206;-74
2020/12/16 01:07:41;;;;;;;15.73;9.33;;;5.30;96.70;;;;;;4966911;28;20179;-73
2020/12/16 01:10:12;;;;;;;18.07;9.43;;;5.30;96.70;;;;;;4967129;28;20187;-73
2020/12/16 01:12:42;;;;;;;15.83;8.60;;;5.30;96.20;;;;;;4943587;29;20183;-74
2020/12/16 01:15:20;;;;;;;17.23;8.60;;;5.30;96.60;;;;;;4957026;28;20528;-74
2020/12/16 01:17:47;;;;;;;20.70;8.97;;;5.30;96.90;;;;;;4967579;28;20290;-73
2020/12/16 01:20:13;;;;;;;18.83;10.57;;;5.30;96.90;;;;;;4950038;28;20257;-73
2020/12/16 01:22:41;;;;;;;17.67;8.90;;;5.30;97.00;;;;;;4949819;28;20186;-73
2020/12/16 01:25:07;;;;;;;17.13;9.20;;;5.30;97.10;;;;;;4949879;28;20186;-73
2020/12/16 01:27:33;;;;;;;14.50;8.00;;;5.30;97.20;;;;;;4931845;29;20191;-73
2020/12/16 01:29:59;;;;;;;19.27;8.87;;;5.30;97.10;;;;;;4942680;28;20749;-73
2020/12/16 01:32:25;;;;;;;16.07;8.10;;;5.20;97.00;;;;;;4966597;28;20190;-74
2020/12/16 01:34:50;;;;;;;16.13;7.83;;;5.20;97.00;;;;;;4967010;28;20681;-73
2020/12/16 01:37:16;;;;;;;21.57;8.07;;;5.20;96.70;;;;;;4966835;28;20298;-73
2020/12/16 01:39:42;;;;;;;20.10;9.70;;;5.30;96.70;;;;;;4966158;28;20973;-73
2020/12/16 01:42:07;;;;;;;17.37;8.00;;;5.30;96.60;;;;;;4966350;28;20190;-73
2020/12/16 01:44:33;;;;;;;16.27;8.03;;;5.30;96.60;;;;;;4962417;28;20238;-73
2020/12/16 01:47:01;;;;;;;12.27;7.10;;;5.40;96.40;;;;;;4949294;28;20186;-74
2020/12/16 01:49:27;;;;;;;14.83;7.30;;;5.40;96.80;;;;;;4966748;28;20700;-74
2020/12/16 01:51:58;;;;;;;17.53;7.53;;;5.50;96.30;;;;;;4965038;28;20183;-73
2020/12/16 01:54:25;;;;;;;12.83;7.43;;;5.50;96.10;;;;;;4965727;28;20639;-74
2020/12/16 01:56:55;;;;;;;14.30;7.90;;;5.40;96.10;;;;;;4948395;28;20228;-73
2020/12/16 01:59:21;;;;;;;13.50;7.07;;;5.40;96.10;;;;;;4966661;28;20214;-73
2020/12/16 02:01:51;;;;;;;13.83;6.63;;;5.40;96.10;;;;;;4944762;29;20233;-74
2020/12/16 02:04:22;;;;;;;10.87;5.17;;;5.30;96.10;;;;;;4947536;29;20289;-73
2020/12/16 02:06:55;;;;;;;11.97;6.43;;;5.20;96.10;;;;;;4960964;28;20266;-73
2020/12/16 02:09:21;;;;;;;14.10;7.17;;;5.20;96.40;;;;;;4966372;28;20186;-73
2020/12/16 02:11:48;;;;;;;13.30;6.27;;;5.20;96.60;;;;;;4966928;28;20183;-73
2020/12/16 02:14:13;;;;;;;11.37;6.93;;;5.20;96.50;;;;;;4967101;28;20641;-74
2020/12/16 02:16:40;;;;;;;18.87;7.53;;;5.20;96.60;;;;;;4965703;28;20722;-74
2020/12/16 02:19:08;;;;;;;8.53;5.97;;;5.20;96.60;;;;;;4966355;28;20220;-74
2020/12/16 02:21:34;;;;;;;10.63;5.83;;;5.30;96.70;;;;;;4965432;28;20545;-73
2020/12/16 02:24:07;;;;;;;11.53;6.17;;;5.30;96.50;;;;;;4966683;28;20214;-74
2020/12/16 02:26:35;;;;;;;12.37;5.80;;;5.30;96.40;;;;;;4948804;28;20566;-74
2020/12/16 02:29:01;;;;;;;12.13;6.23;;;5.30;96.30;;;;;;4965529;28;20217;-73
2020/12/16 02:31:31;;;;;;;12.97;6.23;;;5.40;96.20;;;;;;4961279;28;20616;-73
2020/12/16 02:33:57;;;;;;;9.47;5.50;;;5.40;96.10;;;;;;4963703;28;20750;-73
2020/12/16 02:36:24;;;;;;;8.97;4.97;;;5.40;96.10;;;;;;4958622;28;20190;-73
2020/12/16 02:38:51;;;;;;;10.97;6.30;;;5.40;96.00;;;;;;4965986;28;20630;-73
2020/12/16 02:41:17;;;;;;;9.07;5.70;;;5.50;96.10;;;;;;4966543;28;20190;-73
2020/12/16 02:43:43;;;;;;;10.47;5.00;;;5.50;96.10;;;;;;4949567;28;21027;-73
2020/12/16 02:46:09;;;;;;;8.83;5.00;;;5.50;96.00;;;;;;4965321;28;20276;-73
2020/12/16 02:48:35;;;;;;;9.23;4.70;;;5.40;96.10;;;;;;4966386;28;20178;-73
2020/12/16 02:51:01;;;;;;;8.93;4.30;;;5.30;96.30;;;;;;4944613;28;20242;-73
2020/12/16 02:53:26;;;;;;;5.57;4.03;;;5.10;96.30;;;;;;4952632;28;20197;-73
2020/12/16 02:55:52;;;;;;;6.47;4.10;;;5.10;96.60;;;;;;4969433;28;20352;-73
2020/12/16 02:58:18;;;;;;;7.77;3.90;;;5.00;96.50;;;;;;4969726;28;20269;-74
2020/12/16 03:00:44;;;;;;;5.90;4.13;;;4.90;96.70;;;;;;4969291;28;20190;-73
2020/12/16 03:03:09;;;;;;;8.77;4.40;;;4.80;97.00;;;;;;4948580;29;20219;-73
2020/12/16 03:05:35;;;;;;;7.40;4.73;;;4.70;97.50;;;;;;4964368;28;20193;-73
2020/12/16 03:08:01;;;;;;;7.07;4.63;;;4.60;97.80;;;;;;4970168;28;20546;-73
2020/12/16 03:10:26;;;;;;;7.60;4.70;;;4.70;97.90;;;;;;4945149;28;20183;-74
2020/12/16 03:12:52;;;;;;;11.03;5.33;;;4.70;97.40;;;;;;4969076;28;20187;-73
2020/12/16 03:15:18;;;;;;;10.60;5.20;;;4.70;97.40;;;;;;4948741;28;20222;-73
2020/12/16 03:17:43;;;;;;;4.80;4.03;;;4.70;97.40;;;;;;4969112;28;20184;-73
2020/12/16 03:20:09;;;;;;;10.13;5.33;;;4.80;97.50;;;;;;4969276;28;20547;-73
2020/12/16 03:22:35;;;;;;;12.23;5.43;;;4.80;97.30;;;;;;4969034;28;20190;-73
2020/12/16 03:25:00;;;;;;;6.63;4.27;;;4.60;97.50;;;;;;4967922;28;20326;-73
2020/12/16 03:27:26;;;;;;;11.23;5.07;;;4.50;97.80;;;;;;4967193;28;20190;-73
2020/12/16 03:29:52;;;;;;;10.70;5.53;;;4.50;98.00;;;;;;4956371;28;20187;-73
2020/12/16 03:32:17;;;;;;;9.07;5.43;;;4.40;98.00;;;;;;4951738;28;20174;-74
2020/12/16 03:34:43;;;;;;;12.03;5.83;;;4.40;98.30;;;;;;4969850;28;20178;-74
2020/12/16 03:37:09;;;;;;;10.50;5.40;;;4.40;98.50;;;;;;4969454;28;20279;-74
2020/12/16 03:39:35;;;;;;;10.93;5.50;;;4.40;98.50;;;;;;4969446;28;20705;-74
2020/12/16 03:42:00;;;;;;;14.30;5.57;;;4.40;98.50;;;;;;4969699;28;20190;-74
2020/12/16 03:44:26;;;;;;;10.80;5.23;;;4.30;98.40;;;;;;4944984;29;20275;-74
2020/12/16 03:46:52;;;;;;;10.80;5.53;;;4.40;98.50;;;;;;4950069;29;20233;-74
2020/12/16 03:49:18;;;;;;;8.33;5.53;;;4.40;98.50;;;;;;4966299;28;20179;-74
2020/12/16 03:51:45;;;;;;;12.27;6.07;;;4.30;98.50;;;;;;4951616;28;20193;-74
2020/12/16 03:54:11;;;;;;;8.27;4.73;;;4.30;98.50;;;;;;4960774;28;20183;-73
2020/12/16 03:56:37;;;;;;;6.07;4.47;;;4.30;98.50;;;;;;4959251;28;20198;-74
2020/12/16 03:59:03;;;;;;;9.87;5.13;;;4.20;98.50;;;;;;4963774;28;20194;-74
2020/12/16 04:01:47;;;;;;;8.57;5.17;;;4.20;98.50;;;;;;4958577;28;20186;-71
2020/12/16 04:04:13;;;;;;;8.23;4.97;;;4.30;98.50;;;;;;4966937;28;20288;-73
2020/12/16 04:06:38;;;;;;;7.53;4.13;;;4.20;98.50;;;;;;4951787;28;20183;-73
2020/12/16 04:09:05;;;;;;;9.20;4.43;;;4.10;98.50;;;;;;4947593;28;20183;-74
2020/12/16 04:11:30;;;;;;;8.33;4.40;;;4.00;98.50;;;;;;4956327;28;20182;-74
2020/12/16 04:13:56;;;;;;;7.57;5.07;;;4.00;98.50;;;;;;4964030;28;20201;-74
2020/12/16 04:16:23;;;;;;;6.83;3.73;;;4.10;98.50;;;;;;4968741;28;20245;-74
2020/12/16 04:18:49;;;;;;;5.93;4.30;;;4.00;98.50;;;;;;4968742;28;20186;-74
2020/12/16 04:21:17;;;;;;;7.37;3.80;;;4.00;98.50;;;;;;4968058;28;20234;-74
2020/12/16 04:23:43;;;;;;;7.13;3.87;;;3.90;98.50;;;;;;4967639;28;20198;-74
2020/12/16 04:26:09;;;;;;;6.20;4.10;;;3.80;98.50;;;;;;4966808;28;20182;-73
2020/12/16 04:28:37;;;;;;;6.37;3.80;;;3.80;98.50;;;;;;4951182;28;20189;-73
2020/12/16 04:31:09;;;;;;;7.70;4.50;;;3.80;98.50;;;;;;4967950;28;20194;-73
2020/12/16 04:33:35;;;;;;;5.63;3.43;;;3.70;98.50;;;;;;4968425;28;20175;-73
2020/12/16 04:36:01;;;;;;;7.80;4.33;;;3.70;98.50;;;;;;4944354;28;20625;-73
2020/12/16 04:38:27;;;;;;;7.43;5.07;;;3.70;98.50;;;;;;4932322;29;20195;-74
2020/12/16 04:40:55;;;;;;;4.77;3.57;;;3.70;98.50;;;;;;4955379;28;20178;-73
2020/12/16 04:43:22;;;;;;;6.63;3.47;;;3.70;98.50;;;;;;4967341;28;20683;-73
2020/12/16 04:45:50;;;;;;;7.27;3.93;;;3.70;98.50;;;;;;4960167;28;20197;-74
2020/12/16 04:48:16;;;;;;;7.73;4.00;;;3.70;98.50;;;;;;4953323;28;20190;-73
2020/12/16 04:50:44;;;;;;;11.00;4.33;;;3.70;98.50;;;;;;4967937;28;20195;-73
2020/12/16 04:53:13;;;;;;;4.53;3.23;;;3.70;98.50;;;;;;4966217;28;20572;-73
2020/12/16 04:55:40;;;;;;;6.33;3.67;;;3.70;98.50;;;;;;4967136;28;20182;-73
2020/12/16 04:58:07;;;;;;;5.73;4.37;;;3.70;98.50;;;;;;4951000;28;20611;-73
2020/12/16 05:00:34;;;;;;;8.30;3.60;;;3.70;98.50;;;;;;4938552;28;20182;-73
2020/12/16 05:03:02;;;;;;;4.47;3.30;;;3.60;98.50;;;;;;4967907;28;20769;-73
2020/12/16 05:05:29;;;;;;;3.77;3.47;;;3.60;98.50;;;;;;4967782;28;20182;-74
2020/12/16 05:07:55;;;;;;;6.23;2.60;;;3.70;98.50;;;;;;4967312;28;20187;-72
2020/12/16 05:10:32;;;;;;;7.10;3.37;;;3.70;98.50;;;;;;4966666;28;20193;-72
2020/12/16 05:13:12;;;;;;;7.27;3.73;;;3.70;98.50;;;;;;4966218;28;20209;-72
2020/12/16 05:15:40;;;;;;;5.63;3.20;;;3.70;98.50;;;;;;4963069;28;20261;-72
2020/12/16 05:18:16;;;;;;;6.30;3.33;;;3.70;98.50;;;;;;4967873;28;20184;-73
2020/12/16 05:21:03;;;;;;;4.53;2.83;;;3.80;98.50;;;;;;4966105;28;20178;-73
2020/12/16 05:23:35;;;;;;;5.40;3.63;;;3.90;98.50;;;;;;4967076;28;20713;-73
2020/12/16 05:26:10;;;;;;;5.97;3.47;;;3.90;98.50;;;;;;4966854;28;20272;-73
2020/12/16 05:28:36;;;;;;;4.67;2.97;;;3.80;98.50;;;;;;4967210;28;20177;-72
2020/12/16 05:31:07;;;;;;;4.93;3.17;;;3.80;98.50;;;;;;4966815;28;20225;-72
2020/12/16 05:33:49;;;;;;;2.43;2.20;;;3.70;98.50;;;;;;4968047;28;20174;-73
2020/12/16 05:36:32;;;;;;;3.50;3.20;;;3.70;98.50;;;;;;4967318;28;20182;-73
2020/12/16 05:38:59;;;;;;;3.83;2.40;;;3.70;98.50;;;;;;4967311;28;20206;-73
2020/12/16 05:41:26;;;;;;;7.03;2.80;;;3.70;98.50;;;;;;4966727;28;20192;-73
2020/12/16 05:43:52;;;;;;;3.53;2.67;;;3.70;98.50;;;;;;4963165;28;20221;-72
2020/12/16 05:46:27;;;;;;;5.13;2.63;;;3.60;98.50;;;;;;4965810;28;20182;-72
2020/12/16 05:48:52;;;;;;;3.47;2.90;;;3.60;98.50;;;;;;4966895;28;20205;-72
2020/12/16 05:51:18;;;;;;;3.40;2.20;;;3.50;98.50;;;;;;4944756;29;20187;-73
2020/12/16 05:53:44;;;;;;;2.83;2.50;;;3.50;98.50;;;;;;4930815;29;20551;-74
2020/12/16 05:56:09;;;;;;;3.90;2.70;;;3.50;98.50;;;;;;4941732;28;20194;-74
2020/12/16 05:58:35;;;;;;;4.60;2.33;;;3.50;98.50;;;;;;4966650;28;20268;-72
2020/12/16 06:01:02;;;;;;;4.37;2.40;;;3.40;98.50;;;;;;4966471;28;20187;-73
2020/12/16 06:03:37;;;;;;;2.80;2.20;;;3.40;98.50;;;;;;4965225;28;20225;-73
2020/12/16 06:06:07;;;;;;;2.73;2.47;;;3.40;98.50;;;;;;4966684;28;20659;-73
2020/12/16 06:08:40;;;;;;;2.50;2.30;;;3.40;98.50;;;;;;4950039;28;20189;-73
2020/12/16 06:11:07;;;;;;;4.93;2.00;;;3.50;98.50;;;;;;4965553;28;20186;-73
2020/12/16 06:13:34;;;;;;;2.57;2.40;;;3.40;98.50;;;;;;4966764;28;20182;-73
2020/12/16 06:16:11;;;;;;;3.73;2.13;;;3.40;98.50;;;;;;4948383;28;20202;-74
2020/12/16 06:18:43;;;;;;;6.73;3.07;;;3.40;98.50;;;;;;4962027;28;20186;-74
2020/12/16 06:21:11;;;;;;;3.43;2.20;;;3.50;98.50;;;;;;4962003;28;20190;-73
2020/12/16 06:23:42;;;;;;;3.20;2.10;;;3.50;98.50;;;;;;4966435;28;20206;-77
2020/12/16 06:26:22;;;;;;;3.67;2.73;;;3.60;98.50;;;;;;4961726;28;20185;-79
2020/12/16 06:28:47;;;;;;;1.97;1.73;;;3.60;98.50;;;;;;4955430;28;20541;-77
2020/12/16 06:31:26;;;;;;;2.17;1.97;;;3.60;98.50;;;;;;4971404;28;20201;-76
2020/12/16 06:34:15;;;;;;;4.03;2.53;;;3.60;98.50;;;;;;4950774;28;20622;-75
2020/12/16 06:36:42;;;;;;;2.10;1.90;;;3.70;98.50;;;;;;4951319;28;20269;-76
2020/12/16 06:39:15;;;;;;;3.27;2.17;;;3.70;98.50;;;;;;4970949;28;20272;-76
2020/12/16 06:41:51;;;;;;;4.57;2.40;;;3.80;98.50;;;;;;4966428;28;20241;-76
2020/12/16 06:44:17;;;;;;;3.43;2.97;;;3.80;98.50;;;;;;4949409;29;20209;-75
2020/12/16 06:46:45;;;;;;;4.50;2.80;;;3.90;98.50;;;;;;4969957;28;20186;-75
2020/12/16 06:49:23;;;;;;;2.40;2.30;;;3.90;98.50;;;;;;4950571;29;20187;-76
2020/12/16 06:51:57;;;;;;;2.70;2.47;;;4.00;98.50;;;;;;4947291;28;20626;-76
2020/12/16 06:54:25;;;;;;;3.53;2.40;;;4.10;98.50;;;;;;4969693;28;20186;-76
2020/12/16 06:57:15;;;;;;;4.60;2.23;;;4.00;98.50;;;;;;4961288;28;20206;-76
2020/12/16 06:59:48;;;;;;;2.90;2.33;;;4.10;98.50;;;;;;4965844;28;20186;-79
2020/12/16 07:02:20;;;;;;;2.57;1.83;;;4.10;98.50;;;;;;4972669;28;20829;-79
2020/12/16 07:04:46;;;;;;;2.80;2.27;;;4.20;98.40;;;;;;4967366;28;20891;-75
2020/12/16 07:07:39;;;;;;;2.07;1.67;;;4.20;98.20;;;;;;4968346;28;20217;-76
2020/12/16 07:10:33;;;;;;;2.87;2.33;;;4.20;98.10;;;;;;4928019;29;20582;-75
2020/12/16 07:13:17;;;;;;;3.07;2.63;;;4.30;97.90;;;;;;4915651;29;20712;-75
2020/12/16 07:16:02;;;;;;;2.47;2.27;;;4.30;97.90;;;;;;4926155;29;20262;-76
2020/12/16 07:18:38;;;;;;;4.67;2.10;;;4.40;97.90;;;;;;4929003;29;20263;-80
2020/12/16 07:21:07;;;;;;;3.27;2.53;;;4.50;97.80;;;;;;4912470;29;20206;-76
2020/12/16 07:23:57;;;;;;;3.20;2.93;;;4.50;97.50;;;;;;4913692;29;20728;-81
2020/12/16 07:26:30;;;;;;;3.03;2.37;;;4.50;97.40;;;;;;4934699;29;20190;-78
2020/12/16 07:28:57;;;;;;;4.50;3.17;;;4.60;97.60;;;;;;4903328;29;20239;-86
2020/12/16 07:31:24;;;;;;;5.03;3.03;;;4.60;97.40;;;;;;4935005;29;20287;-85
2020/12/16 07:33:50;;;;;;;3.80;2.90;;;4.60;97.10;;;;;;4932500;29;20663;-77
2020/12/16 07:36:17;;;;;;;5.37;2.20;;;4.70;97.40;;;;;;4913992;29;20295;-76
2020/12/16 07:38:54;;;;;;;2.73;2.53;;;4.70;97.20;;;;;;4931395;29;20184;-82
2020/12/16 07:41:28;;;;;;;5.57;2.63;;;4.80;96.80;;;;;;4931846;29;20737;-76
2020/12/16 07:43:59;;;;;;;3.07;2.83;;;4.80;96.90;;;;;;4930320;29;20208;-83
2020/12/16 07:46:26;;;;;;;3.23;2.73;;;4.80;96.30;;;;;;4925690;28;20197;-80
2020/12/16 07:48:52;;;;;;;2.40;2.30;;;4.70;95.90;;;;;;4971258;28;20186;-80
2020/12/16 07:51:20;;;;;;;3.17;2.87;;;4.60;95.90;;;;;;4945501;28;20694;-80
2020/12/16 07:53:50;;;;;;;3.17;2.97;;;4.50;96.00;;;;;;4954142;28;20190;-83
2020/12/16 07:56:18;;;;;;;4.77;3.10;;;4.50;96.10;;;;;;4950404;28;20663;-76
2020/12/16 07:58:45;;;;;;;3.17;2.97;;;4.50;96.50;;;;;;4952175;28;20199;-77
2020/12/16 08:01:16;;;;;;;3.43;2.93;;;4.60;96.50;;;;;;4970512;28;20217;-77
2020/12/16 08:03:43;;;;;;;3.47;3.17;;;4.60;96.40;;;;;;4964318;28;20305;-77
2020/12/16 08:06:09;;;;;;;2.83;2.63;;;4.60;96.60;;;;;;4971151;28;20652;-77
2020/12/16 08:08:43;;;;;;;4.87;3.37;;;4.70;96.60;;;;;;4970935;28;20201;-77
2020/12/16 08:11:13;;;;;;;3.93;3.00;;;4.80;96.40;;;;;;4970487;28;20178;-77
2020/12/16 08:13:39;;;;;;;2.80;2.60;;;4.80;96.30;;;;;;4970515;28;20263;-78
2020/12/16 08:16:06;;;;;;;2.93;2.73;;;4.80;96.10;;;;;;4949510;28;20290;-76
2020/12/16 08:18:32;;;;;;;2.10;2.00;;;4.80;95.80;;;;;;4952506;28;20197;-76
2020/12/16 08:20:58;;;;;;;2.23;2.13;;;4.70;95.70;;;;;;4951295;28;20190;-74
2020/12/16 08:23:24;;;;;;;2.97;2.77;;;4.70;95.50;;;;;;4951111;28;20209;-77
2020/12/16 08:25:49;;;;;;;3.40;2.67;;;4.70;95.70;;;;;;4969733;28;20190;-77
2020/12/16 08:28:25;;;;;;;4.73;3.37;;;4.70;95.80;;;;;;4954848;28;20186;-75
2020/12/16 08:30:52;;;;;;;3.60;3.27;;;4.60;95.90;;;;;;4952594;28;20178;-77
2020/12/16 08:33:19;;;;;;;3.77;2.53;;;4.60;95.90;;;;;;4952582;28;20190;-77
2020/12/16 08:35:51;;;;;;;3.17;2.87;;;4.70;96.10;;;;;;4952052;28;20928;-77
2020/12/16 08:38:30;;;;;;;3.70;3.17;;;4.70;96.10;;;;;;4951571;28;20704;-81
2020/12/16 08:40:57;;;;;;;3.40;2.80;;;4.70;96.00;;;;;;4951965;28;20190;-76
2020/12/16 08:43:30;;;;;;;3.60;3.30;;;4.80;95.80;;;;;;4968983;28;20594;-76
2020/12/16 08:46:19;;;;;;;4.13;3.30;;;4.80;95.80;;;;;;4951150;28;20221;-76
2020/12/16 08:48:52;;;;;;;2.97;2.73;;;4.80;95.80;;;;;;4967705;28;20175;-76
2020/12/16 08:51:35;;;;;;;3.13;2.83;;;4.80;95.70;;;;;;4969023;28;20190;-77
2020/12/16 08:54:03;;;;;;;3.10;2.80;;;4.70;95.80;;;;;;4948601;28;20740;-76
2020/12/16 08:56:42;;;;;;;4.33;3.30;;;4.70;95.80;;;;;;4950470;28;20198;-76
2020/12/16 08:59:27;;;;;;;3.03;2.77;;;4.70;95.70;;;;;;4945739;28;20194;-76
2020/12/16 09:01:54;;;;;;;3.93;2.90;;;4.80;95.80;;;;;;4968101;28;20193;-76
2020/12/16 09:04:26;;;;;;;4.83;3.40;;;4.80;95.80;;;;;;4966717;28;20249;-75
2020/12/16 09:07:12;;;;;;;3.70;3.40;;;4.80;95.70;;;;;;4968132;28;20174;-76
2020/12/16 09:09:39;;;;;;;3.33;3.10;;;4.90;95.50;;;;;;4967803;28;20186;-75
2020/12/16 09:12:15;;;;;;;3.73;3.17;;;4.90;95.40;;;;;;4950672;28;20198;-76
2020/12/16 09:15:12;;;;;;;4.17;3.73;;;4.90;95.40;;;;;;4967950;28;20669;-77
2020/12/16 09:17:38;;;;;;;3.43;3.13;;;4.90;95.30;;;;;;4949526;28;20648;-75
2020/12/16 09:20:11;;;;;;;6.73;3.57;;;5.00;95.30;;;;;;4968449;28;20263;-76
2020/12/16 09:22:36;;;;;;;4.90;3.80;;;4.80;95.20;;;;;;4944645;28;20253;-76
2020/12/16 09:25:02;;;;;;;4.00;3.27;;;4.90;95.70;;;;;;4954437;28;20218;-76
2020/12/16 09:27:28;;;;;;;3.33;3.10;;;5.00;95.70;;;;;;4968154;28;20202;-76
2020/12/16 09:29:54;;;;;;;3.43;3.23;;;5.10;95.50;;;;;;4967503;28;20659;-76
2020/12/16 09:32:24;;;;;;;5.57;3.83;;;5.20;95.10;;;;;;4965698;28;20197;-77
2020/12/16 09:34:51;;;;;;;7.00;3.93;;;5.20;95.20;;;;;;4967218;28;20194;-77
2020/12/16 09:37:25;;;;;;;4.77;4.20;;;5.30;95.20;;;;;;4956102;28;20276;-76
2020/12/16 09:40:11;;;;;;;4.77;4.00;;;5.40;95.10;;;;;;4956657;28;20615;-77
2020/12/16 09:42:37;;;;;;;6.53;3.80;;;5.50;94.60;;;;;;4959520;28;20233;-77
2020/12/16 09:45:21;;;;;;;3.47;3.17;;;5.50;94.70;;;;;;4967016;28;20751;-76
2020/12/16 09:47:51;;;;;;;4.73;4.10;;;5.60;94.40;;;;;;4966566;28;20171;-75
2020/12/16 09:50:28;;;;;;;4.80;4.40;;;5.60;94.40;;;;;;4960625;28;20186;-75
2020/12/16 09:52:58;;;;;;;3.73;3.43;;;5.70;94.50;;;;;;4951139;28;20166;-75
2020/12/16 09:55:25;;;;;;;4.23;3.73;;;5.70;94.20;;;;;;4966535;28;20202;-77
2020/12/16 09:58:17;;;;;;;3.80;3.50;;;5.70;93.50;;;;;;4946096;28;20201;-75
2020/12/16 10:00:43;;;;;;;3.83;3.53;;;5.70;93.40;;;;;;4963102;28;20197;-79
2020/12/16 10:03:18;;;;;;;4.40;3.80;;;5.80;93.20;;;;;;4949940;28;20218;-74
2020/12/16 10:05:44;;;;;;;5.53;4.13;;;5.70;93.70;;;;;;4949440;28;20685;-76
2020/12/16 10:08:12;;;;;;;3.87;3.47;;;5.80;94.10;;;;;;4946159;29;20198;-75
2020/12/16 10:10:41;;;;;;;5.27;3.83;;;5.80;94.20;;;;;;4964463;28;20186;-76
2020/12/16 10:13:06;;;;;;;7.10;3.63;;;5.80;94.20;;;;;;4966723;28;20214;-76
2020/12/16 10:15:32;;;;;;;6.47;4.70;;;5.90;94.00;;;;;;4940856;29;20218;-75
2020/12/16 10:17:58;;;;;;;4.90;4.40;;;6.00;94.00;;;;;;4957597;28;20190;-78
2020/12/16 10:20:24;;;;;;;4.43;4.03;;;6.00;93.80;;;;;;4955237;28;20178;-78
2020/12/16 10:22:53;;;;;;;4.87;4.40;;;6.10;93.50;;;;;;4951684;28;20968;-81
2020/12/16 10:25:19;;;;;;;5.47;4.90;;;6.10;92.80;;;;;;4969204;28;20186;-78
2020/12/16 10:27:44;;;;;;;5.53;4.43;;;6.10;93.10;;;;;;4966428;28;20190;-76
2020/12/16 10:30:10;;;;;;;5.13;4.37;;;6.20;93.30;;;;;;4961146;28;20199;-76
2020/12/16 10:32:38;;;;;;;4.53;4.23;;;6.20;93.30;;;;;;4965410;28;20248;-75
2020/12/16 10:35:03;;;;;;;4.57;4.17;;;6.30;92.80;;;;;;4939391;29;20999;-80
2020/12/16 10:37:29;;;;;;;4.53;4.13;;;6.20;92.30;;;;;;4932383;29;20191;-81
2020/12/16 10:39:55;;;;;;;5.10;4.17;;;6.20;92.70;;;;;;4943786;28;20193;-75
2020/12/16 10:42:22;;;;;;;5.80;4.67;;;6.30;92.00;;;;;;4948307;28;20294;-76
2020/12/16 10:44:48;;;;;;;6.30;4.73;;;6.20;92.00;;;;;;4965982;28;20206;-75
2020/12/16 10:47:14;;;;;;;9.20;5.50;;;6.10;91.50;;;;;;4966138;28;20195;-75
2020/12/16 10:49:39;;;;;;;4.87;4.40;;;6.00;91.90;;;;;;4945712;28;20187;-75
2020/12/16 10:52:11;;;;;;;5.67;4.70;;;6.00;92.30;;;;;;4948289;28;20660;-76
2020/12/16 10:54:37;;;;;;;5.20;4.73;;;6.00;92.20;;;;;;4946248;28;20205;-81
2020/12/16 10:57:04;;;;;;;5.67;4.43;;;6.00;92.50;;;;;;4957512;28;20237;-77
2020/12/16 10:59:30;;;;;;;5.43;4.93;;;6.00;92.50;;;;;;4957421;28;20205;-74
2020/12/16 11:01:56;;;;;;;4.90;4.40;;;6.00;92.60;;;;;;4966661;28;20199;-76
2020/12/16 11:04:22;;;;;;;5.67;5.07;;;6.00;92.80;;;;;;4948205;28;20220;-75
2020/12/16 11:06:49;;;;;;;5.23;4.73;;;6.00;92.90;;;;;;4965466;28;20206;-74
2020/12/16 11:09:16;;;;;;;9.73;4.70;;;6.10;92.80;;;;;;4965669;28;20280;-77
2020/12/16 11:11:48;;;;;;;5.47;4.67;;;6.10;92.60;;;;;;4948352;28;20187;-76
2020/12/16 11:14:14;;;;;;;11.20;6.17;;;6.10;92.30;;;;;;4968349;28;20265;-77
2020/12/16 11:16:43;;;;;;;6.10;5.07;;;6.10;92.70;;;;;;4963842;28;20759;-75
2020/12/16 11:19:15;;;;;;;10.20;5.17;;;6.20;92.50;;;;;;4952334;28;20190;-76
2020/12/16 11:21:43;;;;;;;6.17;4.63;;;6.10;92.50;;;;;;4966945;28;20248;-77
2020/12/16 11:24:11;;;;;;;9.37;6.07;;;6.20;92.80;;;;;;4970214;28;20205;-78
2020/12/16 11:26:43;;;;;;;11.23;5.60;;;6.20;92.90;;;;;;4952726;28;20190;-76
2020/12/16 11:29:10;;;;;;;8.53;6.40;;;6.20;92.20;;;;;;4953307;28;20197;-76
2020/12/16 11:31:42;;;;;;;9.53;6.93;;;6.30;92.20;;;;;;4969570;28;20994;-76
2020/12/16 11:34:09;;;;;;;10.43;7.67;;;6.30;92.20;;;;;;4969571;28;20244;-75
2020/12/16 11:36:43;;;;;;;11.50;7.13;;;6.30;92.10;;;;;;4951146;28;20822;-75
2020/12/16 11:39:10;;;;;;;8.53;6.77;;;6.30;91.70;;;;;;4952189;28;20214;-75
2020/12/16 11:41:37;;;;;;;10.23;8.07;;;6.20;92.30;;;;;;4969050;28;20740;-76
2020/12/16 11:44:03;;;;;;;14.07;8.23;;;6.20;92.10;;;;;;4969634;28;21052;-76
2020/12/16 11:46:30;;;;;;;11.53;7.57;;;6.10;91.80;;;;;;4964662;28;20214;-78
2020/12/16 11:48:59;;;;;;;10.80;7.20;;;6.10;91.90;;;;;;4963746;28;20240;-74
2020/12/16 11:51:26;;;;;;;12.07;8.63;;;6.10;92.00;;;;;;4969622;28;20233;-73
2020/12/16 11:53:52;;;;;;;15.40;8.20;;;6.10;92.30;;;;;;4968596;28;21097;-72
2020/12/16 11:56:18;;;;;;;13.77;8.57;;;6.10;92.50;;;;;;4951398;28;20553;-71
2020/12/16 11:58:45;;;;;;;13.93;7.87;;;6.10;92.60;;;;;;4968498;28;20182;-72
2020/12/16 12:01:16;;;;;;;20.90;9.20;;;6.20;92.40;;;;;;4968313;28;20201;-72
2020/12/16 12:03:42;;;;;;;16.80;8.50;;;6.20;92.60;;;;;;4968143;28;20265;-73
2020/12/16 12:06:15;;;;;;;13.47;8.20;;;6.20;92.40;;;;;;4968118;28;20639;-73
2020/12/16 12:08:41;;;;;;;16.90;9.57;;;6.20;92.40;;;;;;4950759;28;20639;-73
2020/12/16 12:11:14;;;;;;;15.53;8.63;;;6.30;92.10;;;;;;4968541;28;20220;-74
2020/12/16 12:13:40;;;;;;;14.10;9.37;;;6.30;92.10;;;;;;4968578;28;20258;-73
2020/12/16 12:16:10;;;;;;;13.93;8.30;;;6.30;92.10;;;;;;4956949;28;20230;-73
2020/12/16 12:18:38;;;;;;;13.87;8.70;;;6.20;92.00;;;;;;4951920;28;20676;-73
2020/12/16 12:21:05;;;;;;;13.10;8.87;;;6.10;92.00;;;;;;4967243;28;20572;-73
2020/12/16 12:23:32;;;;;;;14.23;7.73;;;6.10;92.40;;;;;;4967133;28;20213;-73
2020/12/16 12:25:58;;;;;;;14.30;9.87;;;6.00;92.30;;;;;;4967999;28;20212;-72
2020/12/16 12:28:24;;;;;;;17.33;8.23;;;6.00;92.40;;;;;;4967941;28;20178;-72
2020/12/16 12:30:50;;;;;;;17.83;8.87;;;6.00;92.40;;;;;;4968217;28;20249;-75
2020/12/16 12:33:16;;;;;;;13.67;8.40;;;6.00;92.60;;;;;;4968843;28;20201;-78
2020/12/16 12:35:41;;;;;;;14.70;8.90;;;6.00;92.80;;;;;;4949864;28;20213;-77
2020/12/16 12:38:07;;;;;;;12.47;8.07;;;6.00;92.90;;;;;;4967544;28;20190;-76
2020/12/16 12:40:33;;;;;;;17.33;6.80;;;6.10;92.40;;;;;;4967748;28;20935;-76
2020/12/16 12:42:58;;;;;;;11.57;8.53;;;6.10;92.60;;;;;;4968275;28;20200;-76
2020/12/16 12:45:24;;;;;;;11.27;8.80;;;6.10;92.70;;;;;;4950328;28;20942;-75
2020/12/16 12:47:50;;;;;;;9.33;7.00;;;6.20;92.90;;;;;;4967296;28;20182;-72
2020/12/16 12:50:15;;;;;;;11.73;8.03;;;6.30;92.70;;;;;;4968197;28;20178;-74
2020/12/16 12:52:41;;;;;;;11.80;7.90;;;6.30;92.40;;;;;;4951735;28;20191;-75
2020/12/16 12:55:07;;;;;;;14.87;8.20;;;6.30;92.20;;;;;;4949455;28;20416;-73
2020/12/16 12:57:42;;;;;;;9.83;7.13;;;6.30;92.70;;;;;;4967660;28;20248;-73
2020/12/16 13:00:12;;;;;;;11.93;8.47;;;6.20;92.30;;;;;;4967382;28;20185;-74
2020/12/16 13:02:38;;;;;;;15.27;7.80;;;6.20;92.50;;;;;;4967217;28;20194;-74